createdAt,value
2022-09-29T00:01:10.179Z,14.60
2022-09-29T00:03:38.119Z,14.50
2022-09-29T00:06:14.618Z,14.50
2022-09-29T00:08:42.607Z,14.50
2022-09-29T00:11:13.866Z,14.50
2022-09-29T00:13:41.410Z,14.50
2022-09-29T00:16:09.117Z,14.50
2022-09-29T00:18:37.119Z,14.40
2022-09-29T00:21:11.667Z,14.40
2022-09-29T00:23:39.085Z,14.40
2022-09-29T00:26:22.090Z,14.50
2022-09-29T00:28:57.435Z,14.40
2022-09-29T00:31:29.282Z,14.40
2022-09-29T00:33:57.013Z,14.40
2022-09-29T00:36:25.710Z,14.40
2022-09-29T00:38:53.817Z,14.40
2022-09-29T00:41:32.549Z,14.30
2022-09-29T00:44:05.468Z,14.30
2022-09-29T00:46:45.361Z,14.30
2022-09-29T00:49:45.497Z,14.30
2022-09-29T00:52:44.221Z,14.20
2022-09-29T00:55:24.936Z,14.30
2022-09-29T00:58:08.003Z,14.20
2022-09-29T01:00:35.346Z,14.20
2022-09-29T01:03:12.860Z,14.20
2022-09-29T01:05:50.900Z,14.20
2022-09-29T01:08:30.475Z,14.20
2022-09-29T01:11:01.875Z,14.10
2022-09-29T01:13:30.353Z,14.10
2022-09-29T01:15:57.326Z,14.00
2022-09-29T01:18:25.569Z,13.90
2022-09-29T01:21:27.721Z,13.90
2022-09-29T01:24:32.444Z,13.90
2022-09-29T01:27:23.933Z,13.90
2022-09-29T01:30:08.642Z,13.90
2022-09-29T01:33:14.426Z,13.90
2022-09-29T01:35:50.040Z,13.80
2022-09-29T01:38:54.286Z,13.80
2022-09-29T01:41:41.174Z,13.80
2022-09-29T01:44:41.971Z,13.80
2022-09-29T01:47:20.379Z,13.80
2022-09-29T01:50:03.747Z,13.80
2022-09-29T01:52:38.962Z,13.80
2022-09-29T01:55:13.197Z,13.80
2022-09-29T01:57:57.653Z,13.80
2022-09-29T02:00:31.498Z,13.80
2022-09-29T02:03:15.598Z,13.70
2022-09-29T02:06:02.307Z,13.70
2022-09-29T02:08:40.413Z,13.70
2022-09-29T02:11:12.873Z,13.70
2022-09-29T02:14:04.089Z,13.70
2022-09-29T02:16:42.191Z,13.70
2022-09-29T02:19:27.362Z,13.70
2022-09-29T02:21:55.447Z,13.70
2022-09-29T02:24:24.534Z,13.60
2022-09-29T02:26:52.310Z,13.60
2022-09-29T02:29:20.654Z,13.60
2022-09-29T02:31:49.318Z,13.60
2022-09-29T02:34:22.571Z,13.50
2022-09-29T02:37:23.602Z,13.60
2022-09-29T02:40:21.918Z,13.60
2022-09-29T02:43:01.638Z,13.50
2022-09-29T02:45:49.763Z,13.50
2022-09-29T02:49:22.777Z,13.50
2022-09-29T02:52:00.126Z,13.50
2022-09-29T02:54:49.643Z,13.40
2022-09-29T02:57:34.697Z,13.50
2022-09-29T03:00:11.688Z,13.40
2022-09-29T03:02:42.810Z,13.40
2022-09-29T03:05:15.184Z,13.40
2022-09-29T03:07:43.557Z,13.40
2022-09-29T03:10:13.530Z,13.40
2022-09-29T03:12:41.162Z,13.40
2022-09-29T03:15:11.432Z,13.40
2022-09-29T03:17:40.598Z,13.30
2022-09-29T03:20:08.761Z,13.30
2022-09-29T03:22:36.106Z,13.30
2022-09-29T03:25:06.896Z,13.30
2022-09-29T03:27:36.765Z,13.30
2022-09-29T03:30:05.024Z,13.30
2022-09-29T03:32:32.347Z,13.30
2022-09-29T03:34:59.654Z,13.20
2022-09-29T03:37:26.862Z,13.20
2022-09-29T03:39:54.036Z,13.20
2022-09-29T03:42:24.128Z,13.20
2022-09-29T03:44:51.672Z,13.20
2022-09-29T03:47:19.017Z,13.10
2022-09-29T03:49:46.273Z,13.10
2022-09-29T03:52:13.358Z,13.10
2022-09-29T03:54:40.802Z,13.10
2022-09-29T03:57:08.358Z,13.10
2022-09-29T03:59:35.438Z,13.10
2022-09-29T04:02:05.015Z,13.10
2022-09-29T04:04:32.414Z,13.10
2022-09-29T04:06:59.450Z,13.10
2022-09-29T04:09:26.872Z,13.00
2022-09-29T04:11:54.141Z,13.00
2022-09-29T04:14:22.590Z,13.00
2022-09-29T04:16:49.786Z,13.00
2022-09-29T04:19:17.048Z,13.00
2022-09-29T04:21:44.147Z,13.00
2022-09-29T04:24:11.734Z,13.00
2022-09-29T04:26:39.957Z,13.00
2022-09-29T04:29:07.426Z,12.90
2022-09-29T04:31:34.991Z,12.90
2022-09-29T04:34:02.931Z,12.90
2022-09-29T04:36:30.442Z,12.90
2022-09-29T04:38:57.870Z,12.90
2022-09-29T04:41:25.025Z,12.80
2022-09-29T04:43:51.984Z,12.80
2022-09-29T04:46:19.220Z,12.80
2022-09-29T04:48:46.455Z,12.80
2022-09-29T04:51:13.753Z,12.80
2022-09-29T04:53:40.969Z,12.80
2022-09-29T04:56:09.225Z,12.80
2022-09-29T04:58:36.556Z,12.80
2022-09-29T05:01:10.424Z,12.70
2022-09-29T05:03:38.587Z,12.70
2022-09-29T05:06:06.334Z,12.70
2022-09-29T05:08:33.605Z,12.70
2022-09-29T05:11:06.147Z,12.70
2022-09-29T05:13:34.523Z,12.70
2022-09-29T05:16:03.779Z,12.70
2022-09-29T05:18:32.141Z,12.70
2022-09-29T05:21:27.004Z,12.70
2022-09-29T05:23:55.996Z,12.70
2022-09-29T05:26:24.010Z,12.70
2022-09-29T05:28:51.093Z,12.70
2022-09-29T05:31:19.145Z,12.70
2022-09-29T05:33:46.864Z,12.70
2022-09-29T05:36:14.013Z,12.70
2022-09-29T05:38:41.393Z,12.70
2022-09-29T05:41:12.718Z,12.70
2022-09-29T05:43:41.049Z,12.70
2022-09-29T05:46:10.857Z,12.70
2022-09-29T05:48:38.501Z,12.70
2022-09-29T05:51:12.513Z,12.70
2022-09-29T05:53:41.583Z,12.60
2022-09-29T05:56:16.718Z,12.70
2022-09-29T05:58:44.155Z,12.60
2022-09-29T06:01:15.704Z,12.60
2022-09-29T06:03:43.833Z,12.60
2022-09-29T06:06:18.665Z,12.70
2022-09-29T06:08:47.397Z,12.60
2022-09-29T06:11:27.743Z,12.60
2022-09-29T06:13:56.410Z,12.70
2022-09-29T06:16:28.137Z,12.60
2022-09-29T06:18:56.170Z,12.70
2022-09-29T06:21:26.774Z,12.70
2022-09-29T06:23:56.181Z,12.70
2022-09-29T06:26:26.022Z,12.70
2022-09-29T06:28:54.446Z,12.70
2022-09-29T06:31:25.452Z,12.80
2022-09-29T06:33:53.000Z,12.80
2022-09-29T06:36:43.628Z,12.80
2022-09-29T06:39:14.373Z,12.80
2022-09-29T06:41:43.292Z,12.70
2022-09-29T06:44:11.511Z,12.80
2022-09-29T06:46:39.058Z,12.80
2022-09-29T06:49:07.246Z,12.80
2022-09-29T06:51:45.491Z,12.80
2022-09-29T06:54:17.183Z,12.80
2022-09-29T06:56:53.396Z,12.80
2022-09-29T06:59:20.972Z,12.80
2022-09-29T07:01:50.479Z,12.90
2022-09-29T07:04:20.485Z,12.80
2022-09-29T07:06:49.309Z,12.90
2022-09-29T07:09:18.627Z,12.90
2022-09-29T07:11:51.062Z,12.90
2022-09-29T07:14:22.764Z,12.90
2022-09-29T07:16:51.183Z,13.00
2022-09-29T07:19:19.925Z,13.00
2022-09-29T07:21:48.633Z,13.00
2022-09-29T07:24:16.562Z,13.00
2022-09-29T07:26:44.242Z,13.10
2022-09-29T07:29:15.645Z,13.10
2022-09-29T07:31:51.665Z,13.10
2022-09-29T07:34:21.827Z,13.00
2022-09-29T07:36:49.560Z,13.10
2022-09-29T07:39:17.102Z,13.10
2022-09-29T07:41:44.633Z,13.10
2022-09-29T07:44:11.746Z,13.10
2022-09-29T07:46:38.869Z,13.10
2022-09-29T07:49:06.249Z,13.10
2022-09-29T07:51:33.634Z,13.10
2022-09-29T07:54:05.453Z,13.20
2022-09-29T07:56:35.374Z,13.10
2022-09-29T07:59:05.072Z,13.20
2022-09-29T08:01:33.080Z,13.20
2022-09-29T08:04:02.277Z,13.20
2022-09-29T08:06:29.413Z,13.20
2022-09-29T08:09:03.686Z,13.20
2022-09-29T08:11:36.931Z,13.20
2022-09-29T08:14:04.394Z,13.30
2022-09-29T08:16:32.401Z,13.30
2022-09-29T08:19:01.154Z,13.30
2022-09-29T08:21:31.903Z,13.40
2022-09-29T08:24:00.428Z,13.30
2022-09-29T08:26:40.623Z,13.30
2022-09-29T08:29:17.242Z,13.30
2022-09-29T08:31:46.427Z,13.30
2022-09-29T08:34:14.646Z,13.30
2022-09-29T08:36:42.254Z,13.30
2022-09-29T08:39:11.758Z,13.40
2022-09-29T08:41:54.190Z,13.40
2022-09-29T08:44:39.790Z,13.50
2022-09-29T08:47:44.599Z,13.40
2022-09-29T08:50:33.602Z,13.50
2022-09-29T08:53:23.865Z,13.50
2022-09-29T09:02:08.885Z,13.50
2022-09-29T09:05:59.920Z,13.50
2022-09-29T09:08:55.855Z,13.50
2022-09-29T09:11:54.004Z,13.80
2022-09-29T09:15:08.529Z,14.00
2022-09-29T10:03:59.743Z,16.00
2022-09-29T10:06:27.702Z,16.10
2022-09-29T10:08:55.166Z,16.10
2022-09-29T10:11:27.579Z,16.10
2022-09-29T10:14:25.757Z,16.00
2022-09-29T10:17:12.961Z,16.10
2022-09-29T10:40:21.587Z,15.90
2022-09-29T10:42:51.718Z,15.90
2022-09-29T10:45:30.136Z,15.90
2022-09-29T10:48:12.435Z,15.80
2022-09-29T10:50:58.177Z,15.80
2022-09-29T10:53:34.225Z,15.80
2022-09-29T10:56:16.272Z,15.80
2022-09-29T10:59:02.988Z,15.80
2022-09-29T11:01:46.048Z,15.80
2022-09-29T11:04:19.379Z,15.80
2022-09-29T11:06:47.327Z,15.80
2022-09-29T11:09:15.660Z,15.80
2022-09-29T11:11:48.982Z,15.80
2022-09-29T11:14:37.655Z,15.80
2022-09-29T11:17:31.105Z,15.80
2022-09-29T11:20:03.177Z,15.90
2022-09-29T11:22:58.358Z,15.90
2022-09-29T11:25:34.575Z,16.00
2022-09-29T11:28:19.321Z,16.00
2022-09-29T11:31:09.306Z,16.00
2022-09-29T11:34:00.403Z,16.10
2022-09-29T11:36:57.057Z,16.20
2022-09-29T11:40:07.128Z,16.30
2022-09-29T11:43:09.109Z,16.40
2022-09-29T11:46:32.418Z,16.40
2022-09-29T11:49:27.217Z,16.50
2022-09-29T11:52:48.467Z,16.70
2022-09-29T11:56:05.545Z,16.80
2022-09-29T11:59:02.985Z,16.90
2022-09-29T12:02:19.368Z,16.90
2022-09-29T12:05:05.431Z,16.70
2022-09-29T12:07:48.371Z,16.70
2022-09-29T12:10:37.772Z,17.00
2022-09-29T12:13:27.485Z,17.20
2022-09-29T12:16:08.057Z,17.30
2022-09-29T12:18:46.528Z,17.40
2022-09-29T12:21:17.862Z,17.50
2022-09-29T12:23:47.553Z,17.50
2022-09-29T12:26:23.380Z,17.60
2022-09-29T12:29:28.537Z,17.60
2022-09-29T12:32:00.436Z,17.60
2022-09-29T12:34:57.523Z,17.60
2022-09-29T12:37:43.100Z,17.60
2022-09-29T12:40:35.471Z,17.60
2022-09-29T12:43:06.814Z,17.60
2022-09-29T12:46:10.014Z,17.50
2022-09-29T12:48:59.987Z,17.40
2022-09-29T12:51:40.530Z,17.30
2022-09-29T12:54:44.973Z,17.40
2022-09-29T12:57:40.132Z,17.20
2022-09-29T13:00:14.272Z,17.20
2022-09-29T13:02:58.404Z,17.00
2022-09-29T13:06:09.002Z,17.00
2022-09-29T13:09:33.147Z,16.80
2022-09-29T13:12:37.846Z,16.60
2022-09-29T13:15:24.237Z,16.70
2022-09-29T13:18:25.427Z,16.70
2022-09-29T13:21:23.046Z,16.30
2022-09-29T13:23:58.969Z,16.20
2022-09-29T13:27:00.311Z,15.90
2022-09-29T13:29:31.246Z,15.80
2022-09-29T13:32:04.355Z,15.80
2022-09-29T13:34:38.490Z,15.90
2022-09-29T13:37:16.617Z,15.90
2022-09-29T13:40:10.557Z,16.00
2022-09-29T13:42:42.118Z,16.00
2022-09-29T13:45:20.964Z,16.00
2022-09-29T13:47:57.892Z,16.00
2022-09-29T13:50:44.627Z,15.80
2022-09-29T13:53:28.180Z,16.00
2022-09-29T13:56:04.209Z,16.00
2022-09-29T13:58:42.616Z,16.10
2022-09-29T14:01:12.855Z,16.10
2022-09-29T14:03:45.378Z,16.20
2022-09-29T14:06:41.488Z,16.10
2022-09-29T14:09:23.346Z,16.00
2022-09-29T14:11:54.861Z,15.60
2022-09-29T14:14:33.865Z,15.30
2022-09-29T14:17:02.367Z,15.40
2022-09-29T14:19:48.133Z,15.60
2022-09-29T14:22:30.454Z,15.50
2022-09-29T14:25:10.696Z,15.60
2022-09-29T14:28:06.810Z,15.70
2022-09-29T14:30:37.345Z,15.80
2022-09-29T14:33:14.098Z,15.60
2022-09-29T14:35:48.495Z,15.80
2022-09-29T14:38:42.905Z,15.90
2022-09-29T14:41:10.496Z,16.10
2022-09-29T14:43:45.071Z,16.10
2022-09-29T14:47:09.090Z,16.20
2022-09-29T14:50:33.522Z,16.30
2022-09-29T14:53:21.074Z,16.20
2022-09-29T14:56:24.972Z,16.10
2022-09-29T14:59:41.148Z,15.90
2022-09-29T15:02:29.264Z,16.20
2022-09-29T15:04:57.787Z,16.30
2022-09-29T15:07:28.959Z,16.30
2022-09-29T15:09:59.757Z,16.40
2022-09-29T15:12:32.440Z,16.40
2022-09-29T15:15:03.268Z,16.40
2022-09-29T15:17:57.103Z,16.40
2022-09-29T15:20:52.646Z,16.40
2022-09-29T15:23:57.416Z,16.40
2022-09-29T15:26:31.270Z,16.20
2022-09-29T15:29:00.128Z,16.20
2022-09-29T15:31:36.762Z,16.20
2022-09-29T15:34:04.914Z,16.20
2022-09-29T15:36:41.991Z,15.90
2022-09-29T15:39:51.398Z,15.50
2022-09-29T15:42:27.770Z,15.70
2022-09-29T15:45:03.547Z,15.80
2022-09-29T15:47:41.337Z,15.70
2022-09-29T15:50:26.032Z,15.70
2022-09-29T15:52:53.941Z,15.50
2022-09-29T15:55:25.584Z,14.80
2022-09-29T15:57:53.463Z,14.50
2022-09-29T16:00:29.370Z,14.30
2022-09-29T16:03:12.736Z,14.50
2022-09-29T16:05:47.987Z,14.40
2022-09-29T16:08:28.867Z,14.50
2022-09-29T16:11:04.899Z,14.60
2022-09-29T16:13:36.943Z,14.70
2022-09-29T16:16:08.366Z,14.80
2022-09-29T16:18:51.597Z,14.90
2022-09-29T16:21:25.225Z,14.60
2022-09-29T16:24:02.488Z,14.80
2022-09-29T16:26:55.274Z,15.10
2022-09-29T16:29:28.790Z,15.20
2022-09-29T16:31:58.024Z,15.00
2022-09-29T16:34:32.737Z,15.00
2022-09-29T16:37:14.475Z,15.00
2022-09-29T16:39:46.214Z,14.90
2022-09-29T16:42:26.932Z,14.90
2022-09-29T16:44:56.513Z,14.90
2022-09-29T16:47:33.043Z,14.80
2022-09-29T16:50:12.433Z,14.70
2022-09-29T16:52:49.145Z,14.80
2022-09-29T16:55:21.990Z,14.90
2022-09-29T16:58:05.068Z,14.60
2022-09-29T17:00:36.527Z,14.30
2022-09-29T17:03:05.662Z,14.10
2022-09-29T17:05:43.695Z,14.00
2022-09-29T17:08:21.291Z,14.10
2022-09-29T17:10:51.546Z,14.10
2022-09-29T17:13:19.945Z,14.10
2022-09-29T17:15:51.762Z,14.20
2022-09-29T17:18:20.864Z,14.20
2022-09-29T17:20:48.131Z,14.30
2022-09-29T17:23:15.211Z,14.40
2022-09-29T17:25:47.363Z,14.10
2022-09-29T17:28:19.929Z,14.20
2022-09-29T17:30:48.609Z,14.20
2022-09-29T17:33:18.786Z,14.20
2022-09-29T17:35:55.178Z,14.30
2022-09-29T17:38:24.022Z,14.20
2022-09-29T17:41:02.914Z,14.20
2022-09-29T17:43:31.797Z,14.30
2022-09-29T17:46:00.859Z,14.30
2022-09-29T17:48:30.565Z,14.30
2022-09-29T17:50:59.504Z,14.30
2022-09-29T17:53:27.172Z,14.10
2022-09-29T17:55:57.904Z,13.80
2022-09-29T17:58:25.694Z,13.90
2022-09-29T18:00:59.899Z,13.60
2022-09-29T18:03:29.295Z,13.40
2022-09-29T18:05:58.146Z,13.30
2022-09-29T18:08:29.222Z,13.50
2022-09-29T18:11:02.366Z,13.10
2022-09-29T18:13:34.373Z,13.00
2022-09-29T18:16:05.250Z,13.10
2022-09-29T18:18:34.255Z,13.20
2022-09-29T18:21:01.391Z,13.30
2022-09-29T18:23:28.666Z,13.10
2022-09-29T18:25:55.870Z,13.20
2022-09-29T18:28:23.099Z,12.80
2022-09-29T18:31:02.430Z,13.00
2022-09-29T18:33:30.184Z,13.10
2022-09-29T18:35:57.712Z,13.40
2022-09-29T18:38:24.916Z,13.40
2022-09-29T18:40:57.108Z,13.40
2022-09-29T18:43:27.216Z,13.40
2022-09-29T18:45:57.374Z,13.40
2022-09-29T18:48:24.752Z,13.40
2022-09-29T18:50:55.065Z,13.40
2022-09-29T18:53:23.036Z,13.30
2022-09-29T18:55:56.579Z,13.30
2022-09-29T18:58:24.118Z,13.30
2022-09-29T19:00:55.272Z,13.20
2022-09-29T19:03:27.194Z,13.20
2022-09-29T19:05:56.069Z,13.20
2022-09-29T19:08:24.503Z,13.20
2022-09-29T19:10:58.375Z,13.20
2022-09-29T19:13:26.733Z,13.10
2022-09-29T19:15:59.357Z,13.10
2022-09-29T19:18:27.302Z,13.10
2022-09-29T19:20:57.327Z,13.00
2022-09-29T19:23:27.197Z,13.00
2022-09-29T19:25:58.490Z,12.90
2022-09-29T19:28:27.269Z,12.90
2022-09-29T19:31:04.001Z,12.90
2022-09-29T19:33:31.595Z,12.80
2022-09-29T19:36:04.499Z,12.80
2022-09-29T19:38:31.684Z,12.70
2022-09-29T19:40:59.699Z,12.70
2022-09-29T19:43:27.400Z,12.60
2022-09-29T19:45:54.638Z,12.60
2022-09-29T19:48:23.607Z,12.60
2022-09-29T19:51:17.069Z,12.60
2022-09-29T19:53:48.705Z,12.60
2022-09-29T19:56:17.556Z,12.60
2022-09-29T19:58:44.957Z,12.50
2022-09-29T20:01:12.889Z,12.50
2022-09-29T20:03:40.422Z,12.50
2022-09-29T20:06:09.928Z,12.40
2022-09-29T20:08:37.450Z,12.40
2022-09-29T20:11:11.117Z,12.40
2022-09-29T20:13:39.323Z,12.40
2022-09-29T20:16:07.725Z,12.30
2022-09-29T20:18:37.814Z,12.30
2022-09-29T20:21:11.815Z,12.30
2022-09-29T20:23:39.350Z,12.20
2022-09-29T20:26:11.077Z,12.20
2022-09-29T20:28:38.772Z,12.20
2022-09-29T20:31:07.624Z,12.20
2022-09-29T20:33:36.647Z,12.20
2022-09-29T20:36:06.005Z,12.10
2022-09-29T20:38:39.529Z,12.10
2022-09-29T20:41:07.746Z,12.10
2022-09-29T20:43:35.902Z,12.00
2022-09-29T20:46:07.396Z,12.00
2022-09-29T20:48:37.705Z,11.90
2022-09-29T20:51:15.955Z,11.90
2022-09-29T20:53:52.109Z,11.90
2022-09-29T20:56:19.793Z,11.90
2022-09-29T20:58:51.714Z,11.90
2022-09-29T21:01:25.194Z,11.80
2022-09-29T21:04:07.844Z,11.80
2022-09-29T21:06:40.307Z,11.80
2022-09-29T21:09:12.597Z,11.70
2022-09-29T21:11:41.209Z,11.70
2022-09-29T21:14:19.396Z,11.60
2022-09-29T21:16:51.509Z,11.50
2022-09-29T21:19:25.770Z,11.60
2022-09-29T21:21:55.222Z,11.60
2022-09-29T21:24:23.468Z,11.40
2022-09-29T21:26:52.064Z,11.50
2022-09-29T21:29:19.867Z,11.50
2022-09-29T21:31:48.300Z,11.60
2022-09-29T21:34:16.184Z,11.60
2022-09-29T21:36:43.390Z,11.60
2022-09-29T21:39:11.372Z,11.50
2022-09-29T21:41:41.753Z,11.50
2022-09-29T21:44:15.285Z,11.40
2022-09-29T21:46:44.069Z,11.40
2022-09-29T21:49:16.687Z,11.40
2022-09-29T21:51:48.189Z,11.40
2022-09-29T21:54:25.284Z,11.30
2022-09-29T21:56:53.527Z,11.20
2022-09-29T21:59:22.956Z,11.20
2022-09-29T22:01:51.984Z,11.30
2022-09-29T22:04:20.494Z,11.30
2022-09-29T22:06:48.397Z,11.40
2022-09-29T22:09:19.169Z,11.40
2022-09-29T22:11:49.946Z,11.40
2022-09-29T22:14:18.104Z,11.40
2022-09-29T22:16:45.665Z,11.40
2022-09-29T22:19:29.752Z,11.40
2022-09-29T22:21:57.388Z,11.50
2022-09-29T22:24:27.339Z,11.40
2022-09-29T22:26:55.295Z,11.50
2022-09-29T22:29:23.567Z,11.40
2022-09-29T22:31:51.241Z,11.10
2022-09-29T22:34:18.601Z,10.90
2022-09-29T22:36:46.751Z,10.60
2022-09-29T22:39:14.405Z,10.70
2022-09-29T22:41:42.082Z,10.60
2022-09-29T22:44:09.770Z,10.70
2022-09-29T22:46:37.497Z,10.80
2022-09-29T22:49:05.252Z,10.70
2022-09-29T22:51:32.797Z,10.60
2022-09-29T22:54:00.237Z,10.40
2022-09-29T22:56:29.934Z,10.40
2022-09-29T22:59:04.171Z,10.50
2022-09-29T23:01:35.923Z,10.40
2022-09-29T23:04:04.171Z,10.30
2022-09-29T23:06:32.783Z,10.20
2022-09-29T23:09:00.748Z,10.20
2022-09-29T23:11:31.168Z,10.20
2022-09-29T23:14:00.363Z,10.30
2022-09-29T23:16:28.316Z,10.40
2022-09-29T23:18:58.445Z,10.70
2022-09-29T23:21:26.178Z,10.90
2022-09-29T23:24:01.525Z,10.90
2022-09-29T23:26:30.852Z,10.70
2022-09-29T23:29:00.137Z,10.60
2022-09-29T23:31:29.834Z,10.70
2022-09-29T23:33:59.688Z,10.90
2022-09-29T23:36:30.561Z,10.90
2022-09-29T23:39:10.412Z,11.00
2022-09-29T23:41:44.476Z,10.80
2022-09-29T23:44:16.102Z,10.80
2022-09-29T23:46:44.617Z,10.70
2022-09-29T23:49:20.455Z,10.70
2022-09-29T23:51:52.686Z,10.80
2022-09-29T23:54:23.959Z,10.70
2022-09-29T23:56:53.892Z,10.90
2022-09-29T23:59:21.356Z,10.80
